createdAt,value
2023-07-16T00:04:15.212Z,22.90
2023-07-16T00:09:21.231Z,22.90
2023-07-16T00:14:24.123Z,22.90
2023-07-16T00:19:26.917Z,22.90
2023-07-16T00:24:31.169Z,22.90
2023-07-16T00:29:33.861Z,22.90
2023-07-16T00:34:36.888Z,22.90
2023-07-16T00:39:40.969Z,22.90
2023-07-16T00:44:43.612Z,22.90
2023-07-16T00:49:46.793Z,22.80
2023-07-16T00:54:51.522Z,22.90
2023-07-16T00:59:54.309Z,22.90
2023-07-16T01:04:57.232Z,22.90
2023-07-16T01:10:02.580Z,22.80
2023-07-16T01:15:06.910Z,22.80
2023-07-16T01:20:11.087Z,22.80
2023-07-16T01:25:57.275Z,22.80
2023-07-16T01:31:02.740Z,22.60
2023-07-16T01:36:07.229Z,22.60
2023-07-16T01:41:09.955Z,22.60
2023-07-16T01:46:14.752Z,22.50
2023-07-16T01:51:17.879Z,22.50
2023-07-16T01:56:20.525Z,22.50
2023-07-16T02:01:26.104Z,22.40
2023-07-16T02:06:29.062Z,22.40
2023-07-16T02:11:31.801Z,22.30
2023-07-16T02:16:35.862Z,22.30
2023-07-16T02:21:38.588Z,22.40
2023-07-16T02:26:42.421Z,22.40
2023-07-16T02:31:49.486Z,22.40
2023-07-16T02:36:54.673Z,22.40
2023-07-16T02:41:57.357Z,22.40
2023-07-16T02:47:02.422Z,22.40
2023-07-16T02:52:06.157Z,22.30
2023-07-16T02:57:09.001Z,22.40
2023-07-16T03:02:13.179Z,22.40
2023-07-16T03:07:18.476Z,22.40
2023-07-16T03:12:21.357Z,22.30
2023-07-16T03:17:25.823Z,22.30
2023-07-16T03:22:28.654Z,22.30
2023-07-16T03:27:31.422Z,22.30
2023-07-16T03:32:51.329Z,22.30
2023-07-16T03:37:56.077Z,22.30
2023-07-16T03:43:01.168Z,22.30
2023-07-16T03:48:06.783Z,22.20
2023-07-16T03:53:09.912Z,22.10
2023-07-16T03:58:13.206Z,22.10
2023-07-16T04:03:17.468Z,22.10
2023-07-16T04:08:20.453Z,22.10
2023-07-16T04:13:23.432Z,22.10
2023-07-16T04:18:27.687Z,22.10
2023-07-16T04:23:30.491Z,22.30
2023-07-16T04:28:33.316Z,22.40
2023-07-16T04:33:37.446Z,22.40
2023-07-16T04:38:40.412Z,22.60
2023-07-16T04:43:43.326Z,22.70
2023-07-16T04:48:47.931Z,22.90
2023-07-16T04:53:52.788Z,22.90
2023-07-16T04:58:55.278Z,23.00
2023-07-16T05:04:02.397Z,23.20
2023-07-16T05:09:05.086Z,23.40
2023-07-16T05:14:07.686Z,23.60
2023-07-16T05:19:12.151Z,23.70
2023-07-16T05:24:14.896Z,23.80
2023-07-16T05:29:17.547Z,23.90
2023-07-16T05:34:21.726Z,24.00
2023-07-16T05:39:24.448Z,23.80
2023-07-16T05:44:27.016Z,23.80
2023-07-16T05:49:31.270Z,23.80
2023-07-16T05:54:33.977Z,23.90
2023-07-16T05:59:36.813Z,24.40
2023-07-16T06:04:41.175Z,24.80
2023-07-16T06:09:43.889Z,25.10
2023-07-16T06:14:51.204Z,25.40
2023-07-16T06:19:55.540Z,25.70
2023-07-16T06:24:58.431Z,25.80
2023-07-16T06:30:01.225Z,25.70
2023-07-16T06:35:06.377Z,25.70
2023-07-16T06:40:13.071Z,25.80
2023-07-16T06:45:16.253Z,25.90
2023-07-16T06:50:20.706Z,26.10
2023-07-16T06:55:23.617Z,26.20
2023-07-16T07:00:26.834Z,26.20
2023-07-16T07:05:31.247Z,26.30
2023-07-16T07:10:34.122Z,26.30
2023-07-16T07:15:39.536Z,26.20
2023-07-16T07:20:44.265Z,26.20
2023-07-16T07:25:50.949Z,26.10
2023-07-16T07:30:53.646Z,26.20
2023-07-16T07:36:06.065Z,26.30
2023-07-16T07:41:08.947Z,26.60
2023-07-16T07:46:11.761Z,26.70
2023-07-16T07:51:16.605Z,26.90
2023-07-16T07:56:21.523Z,26.90
2023-07-16T08:01:24.332Z,26.80
2023-07-16T08:06:28.581Z,26.80
2023-07-16T08:11:31.388Z,26.80
2023-07-16T08:16:34.290Z,26.90
2023-07-16T08:21:38.732Z,27.30
2023-07-16T08:26:41.419Z,27.60
2023-07-16T08:31:44.311Z,27.60
2023-07-16T08:36:48.631Z,27.60
2023-07-16T08:41:51.930Z,27.90
2023-07-16T08:46:55.398Z,28.00
2023-07-16T08:52:02.154Z,28.20
2023-07-16T08:57:06.311Z,28.30
2023-07-16T09:02:09.427Z,28.30
2023-07-16T09:07:13.909Z,28.20
2023-07-16T09:12:16.722Z,28.20
2023-07-16T09:17:22.860Z,28.30
2023-07-16T09:22:27.184Z,28.20
2023-07-16T09:27:30.760Z,28.50
2023-07-16T09:32:40.924Z,28.50
2023-07-16T09:37:46.107Z,28.60
2023-07-16T09:42:50.637Z,28.70
2023-07-16T09:47:53.860Z,28.60
2023-07-16T09:52:59.180Z,28.50
2023-07-16T09:58:08.122Z,28.60
2023-07-16T10:03:11.477Z,28.50
2023-07-16T10:08:21.312Z,28.40
2023-07-16T10:13:25.994Z,28.40
2023-07-16T10:18:31.889Z,28.50
2023-07-16T10:23:42.333Z,28.50
2023-07-16T10:28:46.235Z,28.70
2023-07-16T10:34:02.221Z,28.80
2023-07-16T10:39:07.312Z,28.50
2023-07-16T10:44:15.996Z,28.20
2023-07-16T10:49:29.069Z,27.80
2023-07-16T10:54:34.186Z,27.20
2023-07-16T10:59:40.177Z,26.60
2023-07-16T11:04:48.292Z,26.40
2023-07-16T11:09:55.158Z,26.30
2023-07-16T11:14:58.722Z,26.30
2023-07-16T11:20:02.390Z,26.20
2023-07-16T11:25:13.525Z,26.10
2023-07-16T11:30:16.627Z,26.00
2023-07-16T11:35:21.554Z,25.80
2023-07-16T11:40:26.740Z,25.50
2023-07-16T11:45:29.621Z,25.40
2023-07-16T11:50:32.928Z,25.10
2023-07-16T11:55:37.494Z,24.90
2023-07-16T12:00:40.703Z,25.20
2023-07-16T12:05:53.329Z,24.90
2023-07-16T12:11:02.431Z,24.90
2023-07-16T12:16:07.816Z,25.10
2023-07-16T12:21:11.648Z,25.30
2023-07-16T12:26:17.144Z,25.50
2023-07-16T12:31:20.966Z,25.60
2023-07-16T12:36:24.565Z,25.60
2023-07-16T12:41:31.543Z,25.80
2023-07-16T12:46:34.974Z,25.70
2023-07-16T12:51:38.533Z,25.70
2023-07-16T12:56:43.700Z,25.70
2023-07-16T13:01:47.235Z,25.80
2023-07-16T13:06:50.556Z,25.90
2023-07-16T13:11:55.075Z,26.20
2023-07-16T13:16:58.514Z,26.50
2023-07-16T13:22:01.710Z,26.40
2023-07-16T13:27:06.923Z,26.40
2023-07-16T13:32:14.660Z,26.40
2023-07-16T13:37:17.974Z,26.40
2023-07-16T13:42:26.325Z,26.70
2023-07-16T13:47:30.446Z,26.60
2023-07-16T13:52:33.444Z,26.50
2023-07-16T13:57:37.952Z,26.40
2023-07-16T14:02:41.269Z,26.40
2023-07-16T14:07:44.436Z,26.40
2023-07-16T14:12:57.113Z,26.50
2023-07-16T14:18:00.237Z,26.40
2023-07-16T14:23:03.798Z,26.70
2023-07-16T14:28:09.122Z,26.80
2023-07-16T14:33:12.380Z,26.90
2023-07-16T14:38:15.502Z,27.10
2023-07-16T14:43:20.574Z,27.30
2023-07-16T14:48:23.460Z,27.10
2023-07-16T14:53:29.031Z,27.30
2023-07-16T14:58:37.413Z,27.30
2023-07-16T15:04:18.042Z,27.50
2023-07-16T15:09:39.785Z,27.70
2023-07-16T15:22:43.778Z,27.70
2023-07-16T15:28:27.633Z,27.60
2023-07-16T15:34:19.598Z,27.30
2023-07-16T15:40:31.466Z,27.20
2023-07-16T15:53:57.189Z,27.20
2023-07-16T16:00:27.323Z,27.30
2023-07-16T16:05:54.477Z,27.90
2023-07-16T17:13:11.737Z,27.10
2023-07-16T17:32:14.558Z,29.10
2023-07-16T17:51:20.851Z,28.70
2023-07-16T18:41:28.925Z,26.10
2023-07-16T18:46:49.267Z,26.00
2023-07-16T18:51:59.668Z,25.90
2023-07-16T19:13:52.827Z,24.50
2023-07-16T19:19:05.058Z,24.00
2023-07-16T19:24:28.536Z,23.60
2023-07-16T19:30:06.327Z,22.80
2023-07-16T19:41:21.896Z,21.50
2023-07-16T19:51:47.321Z,21.30
2023-07-16T19:56:58.164Z,21.30
2023-07-16T20:02:09.386Z,20.90
2023-07-16T20:12:59.904Z,20.50
2023-07-16T20:18:14.237Z,20.40
2023-07-16T20:23:59.809Z,20.60
2023-07-16T20:29:23.979Z,20.50
2023-07-16T20:51:26.014Z,20.70
2023-07-16T20:57:07.600Z,21.00
2023-07-16T21:02:26.141Z,20.70
2023-07-16T21:07:39.129Z,20.30
2023-07-16T21:13:06.913Z,20.30
2023-07-16T21:18:11.581Z,20.60
2023-07-16T21:23:14.818Z,20.60
2023-07-16T21:28:17.772Z,20.40
2023-07-16T21:33:21.894Z,20.40
2023-07-16T21:38:24.392Z,20.30
2023-07-16T21:43:26.984Z,20.50
2023-07-16T21:48:31.093Z,20.30
2023-07-16T21:53:33.604Z,20.40
2023-07-16T21:58:36.258Z,20.30
2023-07-16T22:03:40.256Z,20.50
2023-07-16T22:08:42.918Z,20.20
2023-07-16T22:13:45.615Z,20.30
2023-07-16T22:18:49.817Z,20.50
2023-07-16T22:23:52.373Z,20.50
2023-07-16T22:28:55.868Z,20.30
2023-07-16T22:33:59.778Z,20.30
2023-07-16T22:39:02.336Z,20.20
2023-07-16T22:44:05.230Z,20.00
2023-07-16T22:49:09.154Z,20.00
2023-07-16T22:54:11.694Z,20.00
2023-07-16T22:59:14.158Z,19.90
2023-07-16T23:04:18.069Z,19.90
2023-07-16T23:09:20.621Z,20.00
2023-07-16T23:14:26.172Z,20.00
2023-07-16T23:19:30.053Z,20.00
2023-07-16T23:24:32.579Z,20.00
2023-07-16T23:29:35.067Z,20.00
2023-07-16T23:34:38.936Z,20.00
2023-07-16T23:39:44.677Z,20.00
2023-07-16T23:44:47.369Z,19.90
2023-07-16T23:49:51.395Z,19.80
2023-07-16T23:54:54.193Z,19.80
2023-07-16T23:59:56.779Z,19.80
